Ripponden, United Kingdom
Current Conditions -  °F | °C
As of 12:20 PM on Friday 19 Dec 2014 (Local Time) from EGNM Reporting Station
Few Clouds Few Clouds  
Wind Chill: 32°   Ceiling: Unl
Heat Index: 43°   Visibility: 6mi
Dew Point: 36°   Wind: 29mph
Humidity: 76%   Direction: 270°W
Pressure: 29.77"   Gusts: 40mph
Location:  53.67°N, 1.94°W
Report Text: EGNM 191220Z 27025G35KT 9999 FEW016CB 06/02 Q1008
Loading
Personal Weather Stations






























Interactive Weather Map New forecast layout! Learn more

10-Day Weather Forecast

Advertisements
Track Severe Weather on mobile